createdAt,value
2023-03-15T05:23:37.064Z,1.84
2023-03-15T05:28:40.529Z,1.85
2023-03-15T05:33:47.193Z,1.85
2023-03-15T05:38:49.001Z,1.89
2023-03-15T05:43:54.384Z,1.94
2023-03-15T05:48:56.344Z,1.99
2023-03-15T05:53:57.936Z,2.10
2023-03-15T05:59:02.992Z,2.22
2023-03-15T06:04:04.937Z,2.39
2023-03-15T06:09:06.563Z,2.90
2023-03-15T06:14:14.362Z,3.74
2023-03-15T06:19:19.055Z,4.56
2023-03-15T06:24:21.172Z,5.46
2023-03-15T06:29:23.629Z,6.33
2023-03-15T06:34:25.137Z,7.85
2023-03-15T06:39:27.212Z,9.95
2023-03-15T06:44:29.588Z,11.76
2023-03-15T06:49:32.914Z,12.96
2023-03-15T06:54:35.407Z,12.66
2023-03-15T06:59:36.916Z,12.53
2023-03-15T07:04:38.558Z,13.96
2023-03-15T07:09:41.805Z,15.37
2023-03-15T07:14:43.303Z,17.11
2023-03-15T07:19:55.707Z,15.91
2023-03-15T07:24:57.532Z,15.38
2023-03-15T07:29:59.122Z,15.47
2023-03-15T07:35:00.783Z,14.87
2023-03-15T07:40:09.834Z,15.12
2023-03-15T07:45:11.662Z,16.21
2023-03-15T07:50:14.592Z,14.06
2023-03-15T07:55:17.948Z,11.38
2023-03-15T08:00:19.942Z,12.22
2023-03-15T08:05:22.123Z,11.73
2023-03-15T08:10:23.665Z,10.54
2023-03-15T08:15:25.111Z,11.68
2023-03-15T08:20:29.704Z,11.99
2023-03-15T08:25:31.747Z,11.22
2023-03-15T08:30:33.240Z,11.07
2023-03-15T08:35:34.988Z,11.65
2023-03-15T08:40:38.288Z,13.04
2023-03-15T08:45:59.515Z,13.64
2023-03-15T08:51:04.077Z,14.00
2023-03-15T08:56:06.179Z,13.44
2023-03-15T09:01:07.700Z,12.59
2023-03-15T09:06:09.720Z,12.98
2023-03-15T09:11:11.713Z,14.39
2023-03-15T09:16:13.748Z,15.69
2023-03-15T09:21:15.193Z,14.81
2023-03-15T09:26:16.598Z,15.35
2023-03-15T09:31:18.122Z,13.91
2023-03-15T09:36:19.599Z,14.45
2023-03-15T09:41:30.872Z,12.78
2023-03-15T09:46:42.713Z,12.93
2023-03-15T09:51:57.213Z,13.15
2023-03-15T09:57:04.509Z,14.97
2023-03-15T10:02:21.738Z,16.45
2023-03-15T10:07:23.265Z,15.93
2023-03-15T10:12:41.385Z,14.90
2023-03-15T10:18:01.822Z,14.54
2023-03-15T10:23:05.372Z,13.98
2023-03-15T10:28:15.985Z,14.11
2023-03-15T10:33:32.115Z,14.18
2023-03-15T10:38:33.537Z,13.29
2023-03-15T10:43:37.324Z,12.60
2023-03-15T10:49:00.020Z,11.98
2023-03-15T10:54:07.184Z,12.00
2023-03-15T10:59:17.516Z,11.86
2023-03-15T11:04:27.369Z,11.56
2023-03-15T11:09:39.907Z,11.62
2023-03-15T11:14:48.173Z,11.38
2023-03-15T11:20:12.968Z,10.77
2023-03-15T11:25:16.598Z,10.52
2023-03-15T11:30:21.625Z,10.23
2023-03-15T11:35:28.629Z,10.14
2023-03-15T11:40:34.720Z,9.73
2023-03-15T11:45:51.185Z,9.21
2023-03-15T11:50:57.440Z,8.65
2023-03-15T11:56:20.238Z,8.55
2023-03-15T12:01:26.549Z,8.53
2023-03-15T12:06:37.550Z,8.64
2023-03-15T12:11:40.882Z,8.59
2023-03-15T12:16:45.379Z,8.29
2023-03-15T12:21:49.572Z,8.07
2023-03-15T12:27:01.072Z,8.31
2023-03-15T12:32:02.438Z,8.59
2023-03-15T12:37:14.502Z,8.67
2023-03-15T12:42:31.394Z,8.73
2023-03-15T12:47:49.670Z,8.77
2023-03-15T12:52:53.626Z,8.74
2023-03-15T12:57:57.918Z,9.14
2023-03-15T13:03:06.104Z,9.62
2023-03-15T13:08:22.761Z,9.94
2023-03-15T13:13:36.096Z,10.41
2023-03-15T13:19:05.467Z,10.71
2023-03-15T13:24:17.075Z,10.91
2023-03-15T13:29:26.477Z,10.78
2023-03-15T13:34:31.167Z,10.48
2023-03-15T13:39:34.423Z,10.69
2023-03-15T13:44:35.921Z,10.53
2023-03-15T13:49:37.426Z,9.78
2023-03-15T13:54:40.270Z,9.05
2023-03-15T13:59:48.903Z,8.64
2023-03-15T14:05:05.275Z,8.15
2023-03-15T14:10:34.426Z,7.58
2023-03-15T14:15:37.571Z,7.35
2023-03-15T14:20:45.404Z,7.71
2023-03-15T14:26:04.574Z,8.04
2023-03-15T14:31:06.731Z,8.60
2023-03-15T14:36:23.098Z,8.51
2023-03-15T14:41:27.551Z,8.37
2023-03-15T14:46:31.385Z,8.31
2023-03-15T14:51:33.235Z,8.09
2023-03-15T14:56:36.868Z,7.79
2023-03-15T15:01:40.647Z,7.66
2023-03-15T15:06:50.901Z,7.71
2023-03-15T15:11:53.353Z,8.01
2023-03-15T15:16:54.926Z,8.03
2023-03-15T15:21:57.510Z,8.19
2023-03-15T15:26:58.919Z,8.31
2023-03-15T15:32:00.612Z,8.30
2023-03-15T15:37:02.232Z,8.33
2023-03-15T15:42:03.902Z,8.47
2023-03-15T15:47:05.754Z,8.30
2023-03-15T15:52:12.201Z,8.18
2023-03-15T15:57:14.414Z,8.32
2023-03-15T16:02:22.090Z,8.44
2023-03-15T16:07:24.924Z,8.50
2023-03-15T16:12:28.341Z,8.22
2023-03-15T16:17:29.862Z,8.09
2023-03-15T16:22:31.792Z,8.08
2023-03-15T16:27:33.262Z,7.80
2023-03-15T16:32:43.962Z,7.72
2023-03-15T16:37:46.590Z,7.59
2023-03-15T16:42:49.380Z,7.44
2023-03-15T16:47:51.597Z,7.30
2023-03-15T16:52:56.013Z,7.26
2023-03-15T16:57:57.591Z,7.18
2023-03-15T17:03:00.090Z,7.29
2023-03-15T17:08:01.770Z,7.34
2023-03-15T17:13:03.682Z,7.39
2023-03-15T17:18:19.915Z,7.36
2023-03-15T17:23:21.871Z,7.27
2023-03-15T17:28:23.398Z,7.01
2023-03-15T17:33:25.951Z,6.75
2023-03-15T17:38:32.615Z,6.58
2023-03-15T17:43:34.052Z,6.41
2023-03-15T17:48:35.548Z,6.34
2023-03-15T17:53:37.024Z,6.23
2023-03-15T17:58:38.557Z,6.13
2023-03-15T18:03:41.197Z,6.03
2023-03-15T18:08:43.654Z,5.94
2023-03-15T18:13:45.139Z,5.73
2023-03-15T18:18:46.611Z,5.55
2023-03-15T18:23:49.705Z,5.42
2023-03-15T18:28:51.528Z,5.39
2023-03-15T18:33:53.803Z,5.34
2023-03-15T18:38:55.534Z,5.30
2023-03-15T18:43:58.280Z,5.27
2023-03-15T18:48:59.708Z,5.17
2023-03-15T18:54:01.125Z,5.06
2023-03-15T18:59:03.540Z,4.94
2023-03-15T19:04:04.970Z,4.84
2023-03-15T19:09:06.518Z,4.79
2023-03-15T19:14:08.723Z,4.74
2023-03-15T19:19:11.099Z,4.65
2023-03-15T19:24:12.836Z,4.59
2023-03-15T19:29:14.558Z,4.51
2023-03-15T19:34:16.030Z,4.41
2023-03-15T19:39:17.988Z,4.29
2023-03-15T19:44:19.459Z,4.17
2023-03-15T19:49:21.020Z,4.12
2023-03-15T19:54:22.539Z,4.04
2023-03-15T19:59:24.910Z,3.94
2023-03-15T20:04:27.396Z,3.89
2023-03-15T20:09:29.368Z,3.87
2023-03-15T20:14:30.838Z,3.82
2023-03-15T20:19:32.445Z,3.82
2023-03-15T20:24:34.062Z,3.77
2023-03-15T20:29:35.597Z,3.75
2023-03-15T20:34:37.401Z,3.72
2023-03-15T20:39:38.912Z,3.65
2023-03-15T20:44:42.233Z,3.56
2023-03-15T20:49:43.734Z,3.43
2023-03-15T20:54:45.160Z,3.27
2023-03-15T20:59:47.014Z,3.21
2023-03-15T21:04:48.476Z,3.11
2023-03-15T21:09:49.963Z,3.02
2023-03-15T21:14:51.919Z,2.93
2023-03-15T21:19:54.008Z,2.94
2023-03-15T21:24:56.508Z,2.95
2023-03-15T21:29:58.530Z,2.89
2023-03-15T21:34:59.975Z,2.87
2023-03-15T21:40:01.659Z,2.85
2023-03-15T21:45:03.207Z,2.83
2023-03-15T21:50:05.205Z,2.83
2023-03-15T21:55:08.137Z,2.74
2023-03-15T22:00:12.065Z,2.67
2023-03-15T22:05:13.737Z,2.57
2023-03-15T22:10:15.557Z,2.53
2023-03-15T22:15:17.161Z,2.47
2023-03-15T22:20:18.787Z,2.43
2023-03-15T22:25:20.479Z,2.41
2023-03-15T22:30:21.991Z,2.41
2023-03-15T22:35:23.798Z,2.37
2023-03-15T22:40:27.653Z,2.32
2023-03-15T22:45:29.291Z,2.24
2023-03-15T22:50:31.120Z,2.21
2023-03-15T22:55:32.577Z,2.20
2023-03-15T23:00:34.068Z,2.21
2023-03-15T23:05:35.660Z,2.24
2023-03-15T23:10:37.227Z,2.21
2023-03-15T23:15:38.800Z,2.20
2023-03-15T23:20:41.523Z,2.20
2023-03-15T23:25:43.229Z,2.18
2023-03-15T23:30:45.837Z,2.17
2023-03-15T23:35:47.317Z,2.17
2023-03-15T23:41:01.610Z,2.07
2023-03-15T23:46:05.047Z,2.01
2023-03-15T23:51:06.534Z,1.92
2023-03-15T23:56:08.014Z,1.90
